createdAt,value
2022-09-13T00:01:09.555Z,11.81
2022-09-13T00:03:40.038Z,11.75
2022-09-13T00:06:12.055Z,11.67
2022-09-13T00:08:39.897Z,11.59
2022-09-13T00:11:07.866Z,11.57
2022-09-13T00:13:35.681Z,11.58
2022-09-13T00:16:05.359Z,11.53
2022-09-13T00:18:34.793Z,11.48
2022-09-13T00:21:22.279Z,11.44
2022-09-13T00:23:52.319Z,11.41
2022-09-13T00:26:25.537Z,11.43
2022-09-13T00:28:55.998Z,11.30
2022-09-13T00:31:24.646Z,11.29
2022-09-13T00:33:51.997Z,11.38
2022-09-13T00:36:19.579Z,11.37
2022-09-13T00:38:46.733Z,11.26
2022-09-13T00:41:17.161Z,11.18
2022-09-13T00:43:51.219Z,11.18
2022-09-13T00:46:26.111Z,11.19
2022-09-13T00:48:57.258Z,11.08
2022-09-13T00:51:25.563Z,11.03
2022-09-13T00:53:55.513Z,11.05
2022-09-13T00:56:30.502Z,11.09
2022-09-13T00:59:06.099Z,11.09
2022-09-13T01:01:41.801Z,11.06
2022-09-13T01:04:12.809Z,10.99
2022-09-13T01:06:42.112Z,10.96
2022-09-13T01:09:12.477Z,10.85
2022-09-13T01:12:04.580Z,10.88
2022-09-13T01:14:32.925Z,10.79
2022-09-13T01:17:00.009Z,10.73
2022-09-13T01:19:26.944Z,10.85
2022-09-13T01:22:29.602Z,10.86
2022-09-13T01:25:15.289Z,10.73
2022-09-13T01:28:01.158Z,10.70
2022-09-13T01:30:57.388Z,10.60
2022-09-13T01:33:48.752Z,10.53
2022-09-13T01:36:41.299Z,10.48
2022-09-13T01:39:12.918Z,10.50
2022-09-13T01:42:05.178Z,10.54
2022-09-13T01:44:49.785Z,10.48
2022-09-13T01:47:25.877Z,10.39
2022-09-13T01:50:04.741Z,10.34
2022-09-13T01:52:43.949Z,10.32
2022-09-13T01:55:32.901Z,10.31
2022-09-13T01:58:11.948Z,10.20
2022-09-13T02:00:51.274Z,10.09
2022-09-13T02:03:29.763Z,10.04
2022-09-13T02:06:08.259Z,9.96
2022-09-13T02:08:42.904Z,9.88
2022-09-13T02:11:17.632Z,9.85
2022-09-13T02:14:10.427Z,9.84
2022-09-13T02:17:10.004Z,9.76
2022-09-13T02:19:49.027Z,9.74
2022-09-13T02:22:20.731Z,9.69
2022-09-13T02:24:54.299Z,9.68
2022-09-13T02:27:28.327Z,9.63
2022-09-13T02:30:01.298Z,9.56
2022-09-13T02:32:34.415Z,9.65
2022-09-13T02:35:06.895Z,9.64
2022-09-13T02:37:38.211Z,9.61
2022-09-13T02:40:11.234Z,9.59
2022-09-13T02:42:44.256Z,9.71
2022-09-13T02:45:14.902Z,9.78
2022-09-13T02:47:57.638Z,9.74
2022-09-13T02:50:41.745Z,9.71
2022-09-13T02:53:22.516Z,9.63
2022-09-13T02:56:01.160Z,9.55
2022-09-13T02:58:52.849Z,9.52
2022-09-13T03:01:21.685Z,9.51
2022-09-13T03:03:48.897Z,9.53
2022-09-13T03:06:29.080Z,9.52
2022-09-13T03:09:00.709Z,9.46
2022-09-13T03:11:46.333Z,9.42
2022-09-13T03:14:52.066Z,9.39
2022-09-13T03:17:54.173Z,9.40
2022-09-13T03:20:40.127Z,9.43
2022-09-13T03:23:23.111Z,9.49
2022-09-13T03:26:15.215Z,9.49
2022-09-13T03:29:03.831Z,9.47
2022-09-13T03:31:43.218Z,9.47
2022-09-13T03:34:21.311Z,9.47
2022-09-13T03:36:56.481Z,9.46
2022-09-13T03:39:35.770Z,9.44
2022-09-13T03:42:13.110Z,9.40
2022-09-13T03:44:44.598Z,9.41
2022-09-13T03:47:12.996Z,9.36
2022-09-13T03:49:40.582Z,9.34
2022-09-13T03:52:08.152Z,9.33
2022-09-13T03:54:38.477Z,9.34
2022-09-13T03:57:14.638Z,9.35
2022-09-13T03:59:51.449Z,9.32
2022-09-13T04:02:20.296Z,9.44
2022-09-13T04:04:47.479Z,9.41
2022-09-13T04:07:21.986Z,9.42
2022-09-13T04:09:49.757Z,9.42
2022-09-13T04:12:17.945Z,9.38
2022-09-13T04:14:44.961Z,9.35
2022-09-13T04:17:13.284Z,9.33
2022-09-13T04:19:40.438Z,9.29
2022-09-13T04:22:07.487Z,9.24
2022-09-13T04:24:34.514Z,9.24
2022-09-13T04:27:04.982Z,9.26
2022-09-13T04:29:33.203Z,9.25
2022-09-13T04:32:00.503Z,9.25
2022-09-13T04:34:28.084Z,9.29
2022-09-13T04:36:55.539Z,9.30
2022-09-13T04:39:23.935Z,9.30
2022-09-13T04:41:54.559Z,9.30
2022-09-13T04:44:24.595Z,9.29
2022-09-13T04:46:51.943Z,9.31
2022-09-13T04:49:20.302Z,9.32
2022-09-13T04:51:48.225Z,9.33
2022-09-13T04:54:16.423Z,9.36
2022-09-13T04:56:44.353Z,9.44
2022-09-13T04:59:12.765Z,9.45
2022-09-13T05:01:40.438Z,9.50
2022-09-13T05:04:10.739Z,9.61
2022-09-13T05:06:38.854Z,9.78
2022-09-13T05:09:07.521Z,9.93
2022-09-13T05:11:34.527Z,10.01
2022-09-13T05:14:02.529Z,10.10
2022-09-13T05:16:32.662Z,10.32
2022-09-13T05:19:00.933Z,10.68
2022-09-13T05:21:28.488Z,10.76
2022-09-13T05:23:56.903Z,10.95
2022-09-13T05:26:29.394Z,11.04
2022-09-13T05:28:56.966Z,11.77
2022-09-13T05:31:26.651Z,12.40
2022-09-13T05:33:56.937Z,12.34
2022-09-13T05:36:24.110Z,12.20
2022-09-13T05:39:18.759Z,12.03
2022-09-13T05:41:43.373Z,12.08
2022-09-13T05:44:13.130Z,12.08
2022-09-13T05:46:42.412Z,12.10
2022-09-13T05:49:12.532Z,12.11
2022-09-13T05:51:39.790Z,12.19
2022-09-13T05:54:06.828Z,12.34
2022-09-13T05:56:34.047Z,12.57
2022-09-13T05:59:00.937Z,12.74
2022-09-13T06:01:29.270Z,12.92
2022-09-13T06:03:59.884Z,13.09
2022-09-13T06:06:29.336Z,13.75
2022-09-13T06:08:57.160Z,14.77
2022-09-13T06:11:26.225Z,14.49
2022-09-13T06:13:56.602Z,14.42
2022-09-13T06:16:23.611Z,14.22
2022-09-13T06:18:53.838Z,14.22
2022-09-13T06:21:26.984Z,14.65
2022-09-13T06:23:56.829Z,14.91
2022-09-13T06:26:26.199Z,14.97
2022-09-13T06:28:55.370Z,14.92
2022-09-13T06:31:25.062Z,15.07
2022-09-13T06:33:58.022Z,15.41
2022-09-13T06:36:25.750Z,15.66
2022-09-13T06:38:52.815Z,15.95
2022-09-13T06:41:23.298Z,16.75
2022-09-13T06:43:56.200Z,17.79
2022-09-13T06:46:25.096Z,19.54
2022-09-13T06:48:53.532Z,21.13
2022-09-13T06:51:23.292Z,22.10
2022-09-13T06:53:52.082Z,22.68
2022-09-13T06:56:27.679Z,22.65
2022-09-13T06:58:57.803Z,23.48
2022-09-13T07:01:33.608Z,23.78
2022-09-13T07:04:04.295Z,24.51
2022-09-13T07:06:34.047Z,24.32
2022-09-13T07:09:02.552Z,24.73
2022-09-13T07:11:32.505Z,24.85
2022-09-13T07:14:01.049Z,25.81
2022-09-13T07:16:32.526Z,25.98
2022-09-13T07:19:05.887Z,26.25
2022-09-13T07:21:34.558Z,26.17
2022-09-13T07:24:02.025Z,27.09
2022-09-13T07:26:31.799Z,27.04
2022-09-13T07:29:01.083Z,26.92
2022-09-13T07:31:44.042Z,26.89
2022-09-13T07:34:20.539Z,27.41
2022-09-13T07:36:48.549Z,27.76
2022-09-13T07:39:22.330Z,27.80
2022-09-13T07:41:53.986Z,27.49
2022-09-13T07:44:21.556Z,27.77
2022-09-13T07:46:48.626Z,27.13
2022-09-13T07:49:18.407Z,27.65
2022-09-13T07:51:46.346Z,28.37
2022-09-13T07:54:16.474Z,28.20
2022-09-13T07:56:45.527Z,28.79
2022-09-13T07:59:15.205Z,29.17
2022-09-13T08:01:47.456Z,29.25
2022-09-13T08:04:18.200Z,29.04
2022-09-13T08:06:46.534Z,28.05
2022-09-13T08:09:15.161Z,28.17
2022-09-13T08:11:48.371Z,28.83
2022-09-13T08:14:17.533Z,29.03
2022-09-13T08:16:45.082Z,28.95
2022-09-13T08:19:17.741Z,28.64
2022-09-13T08:21:45.717Z,28.73
2022-09-13T08:24:18.668Z,28.65
2022-09-13T08:26:46.330Z,28.46
2022-09-13T08:29:14.952Z,28.38
2022-09-13T08:31:45.206Z,27.88
2022-09-13T08:34:15.243Z,28.13
2022-09-13T08:36:43.364Z,27.99
2022-09-13T08:39:13.585Z,28.02
2022-09-13T08:41:42.292Z,27.92
2022-09-13T08:44:15.742Z,26.96
2022-09-13T08:46:46.035Z,27.17
2022-09-13T08:49:30.067Z,26.77
2022-09-13T08:52:03.423Z,26.33
2022-09-13T08:54:30.588Z,26.27
2022-09-13T08:57:12.986Z,26.03
2022-09-13T09:00:00.848Z,25.94
2022-09-13T09:03:13.027Z,25.81
2022-09-13T09:05:47.917Z,25.87
2022-09-13T09:08:20.740Z,25.85
2022-09-13T09:10:52.686Z,25.61
2022-09-13T09:13:24.784Z,25.26
2022-09-13T09:16:02.880Z,24.90
2022-09-13T09:18:35.307Z,25.11
2022-09-13T09:21:06.103Z,24.82
2022-09-13T09:23:41.764Z,24.79
2022-09-13T09:26:17.137Z,24.77
2022-09-13T09:29:25.073Z,24.57
2022-09-13T09:32:01.611Z,24.60
2022-09-13T09:34:42.788Z,24.56
2022-09-13T09:37:26.443Z,24.77
2022-09-13T09:39:56.281Z,24.41
2022-09-13T09:42:29.788Z,24.55
2022-09-13T09:45:02.962Z,24.48
2022-09-13T09:47:39.907Z,24.13
2022-09-13T09:50:18.491Z,24.23
2022-09-13T09:53:01.634Z,23.86
2022-09-13T09:55:37.884Z,23.90
2022-09-13T09:58:08.550Z,24.07
2022-09-13T10:00:48.697Z,23.92
2022-09-13T10:03:24.253Z,24.18
2022-09-13T10:05:51.532Z,24.16
2022-09-13T10:08:28.966Z,23.92
2022-09-13T10:11:00.051Z,24.23
2022-09-13T10:13:31.600Z,24.18
2022-09-13T10:16:00.818Z,24.24
2022-09-13T10:18:44.050Z,24.37
2022-09-13T10:21:17.950Z,24.10
2022-09-13T10:23:52.501Z,23.71
2022-09-13T10:26:25.695Z,23.66
2022-09-13T10:28:57.420Z,23.55
2022-09-13T10:31:31.553Z,23.74
2022-09-13T10:34:11.578Z,23.80
2022-09-13T10:36:53.006Z,23.84
2022-09-13T10:39:23.290Z,23.66
2022-09-13T10:41:54.686Z,23.74
2022-09-13T10:44:40.112Z,23.85
2022-09-13T10:47:13.443Z,23.80
2022-09-13T10:50:10.760Z,24.01
2022-09-13T10:52:50.959Z,24.11
2022-09-13T10:55:33.417Z,23.89
2022-09-13T10:58:05.888Z,23.80
2022-09-13T11:00:52.375Z,23.84
2022-09-13T11:03:53.074Z,23.80
2022-09-13T11:06:41.237Z,23.53
2022-09-13T11:09:25.687Z,23.80
2022-09-13T11:12:31.366Z,23.73
2022-09-13T11:15:25.133Z,23.21
2022-09-13T11:18:25.737Z,23.61
2022-09-13T11:21:01.287Z,23.57
2022-09-13T11:23:45.021Z,23.60
2022-09-13T11:26:38.606Z,23.71
2022-09-13T11:29:09.212Z,23.74
2022-09-13T11:31:58.448Z,23.63
2022-09-13T11:34:38.084Z,23.59
2022-09-13T11:37:36.559Z,23.45
2022-09-13T11:40:04.851Z,23.31
2022-09-13T11:42:53.687Z,23.24
2022-09-13T11:45:25.169Z,23.35
2022-09-13T11:48:10.914Z,23.35
2022-09-13T11:50:55.903Z,23.42
2022-09-13T11:53:41.694Z,23.43
2022-09-13T11:56:14.173Z,23.36
2022-09-13T11:58:48.346Z,23.41
2022-09-13T12:01:22.703Z,23.44
2022-09-13T12:04:05.409Z,23.35
2022-09-13T12:06:40.518Z,23.52
2022-09-13T12:09:26.214Z,23.54
2022-09-13T12:12:05.323Z,23.48
2022-09-13T12:14:58.958Z,23.41
2022-09-13T12:17:36.270Z,23.34
2022-09-13T12:20:12.034Z,23.49
2022-09-13T12:22:42.928Z,23.56
2022-09-13T12:25:21.713Z,23.36
2022-09-13T12:28:02.891Z,23.35
2022-09-13T12:30:42.850Z,23.23
2022-09-13T12:33:15.644Z,23.12
2022-09-13T12:36:12.839Z,23.20
2022-09-13T12:38:59.241Z,23.23
2022-09-13T12:41:45.016Z,23.28
2022-09-13T12:44:45.909Z,23.34
2022-09-13T12:47:24.581Z,23.39
2022-09-13T12:53:36.235Z,23.45
2022-09-13T12:56:22.268Z,23.57
2022-09-13T12:59:20.175Z,23.59
2022-09-13T13:01:52.275Z,23.68
2022-09-13T13:04:24.034Z,23.64
2022-09-13T13:06:56.291Z,23.67
2022-09-13T13:09:44.619Z,23.53
2022-09-13T13:12:28.759Z,23.47
2022-09-13T13:14:56.939Z,23.44
2022-09-13T13:17:45.175Z,23.55
2022-09-13T13:21:03.444Z,23.56
2022-09-13T13:23:39.169Z,23.62
2022-09-13T13:26:07.846Z,23.49
2022-09-13T13:28:53.133Z,23.68
2022-09-13T13:31:32.418Z,24.17
2022-09-13T13:34:22.858Z,24.34
2022-09-13T13:37:01.678Z,24.48
2022-09-13T13:39:28.807Z,24.52
2022-09-13T13:42:17.193Z,24.23
2022-09-13T13:44:44.344Z,24.26
2022-09-13T13:47:14.229Z,24.35
2022-09-13T13:49:46.266Z,24.42
2022-09-13T13:52:23.069Z,24.60
2022-09-13T13:55:04.518Z,24.62
2022-09-13T13:57:59.743Z,24.40
2022-09-13T14:00:32.873Z,24.51
2022-09-13T14:03:03.054Z,24.49
2022-09-13T14:05:43.014Z,24.48
2022-09-13T14:08:32.315Z,24.39
2022-09-13T14:11:11.191Z,24.40
2022-09-13T14:13:48.000Z,24.57
2022-09-13T14:16:33.065Z,24.59
2022-09-13T14:19:24.240Z,24.64
2022-09-13T14:22:21.170Z,24.42
2022-09-13T14:24:57.059Z,24.28
2022-09-13T14:27:27.046Z,24.06
2022-09-13T14:30:04.924Z,23.86
2022-09-13T14:32:45.199Z,23.65
2022-09-13T14:35:38.145Z,23.55
2022-09-13T14:38:35.202Z,23.39
2022-09-13T14:41:15.854Z,23.35
2022-09-13T14:43:44.747Z,23.29
2022-09-13T14:46:35.492Z,23.31
2022-09-13T14:49:08.575Z,23.34
2022-09-13T14:51:45.951Z,23.26
2022-09-13T14:54:40.629Z,23.26
2022-09-13T14:57:18.307Z,23.21
2022-09-13T14:59:50.429Z,23.16
2022-09-13T15:02:25.613Z,23.13
2022-09-13T15:05:00.890Z,23.05
2022-09-13T15:07:32.856Z,22.99
2022-09-13T15:10:05.905Z,22.94
2022-09-13T15:12:33.060Z,22.80
2022-09-13T15:15:26.302Z,22.62
2022-09-13T15:18:21.365Z,22.51
2022-09-13T15:21:05.358Z,22.45
2022-09-13T15:23:39.415Z,22.34
2022-09-13T15:26:10.603Z,22.20
2022-09-13T15:28:43.743Z,22.12
2022-09-13T15:31:20.005Z,22.09
2022-09-13T15:33:49.516Z,21.95
2022-09-13T15:36:19.700Z,21.90
2022-09-13T15:39:11.141Z,21.78
2022-09-13T15:41:40.718Z,21.74
2022-09-13T15:44:09.715Z,21.75
2022-09-13T15:47:04.950Z,21.70
2022-09-13T15:49:32.806Z,21.61
2022-09-13T15:52:05.151Z,21.58
2022-09-13T15:54:40.831Z,21.54
2022-09-13T15:57:13.761Z,21.46
2022-09-13T15:59:41.766Z,21.41
2022-09-13T16:02:29.196Z,21.35
2022-09-13T16:04:56.716Z,21.27
2022-09-13T16:07:25.995Z,21.24
2022-09-13T16:09:53.682Z,21.23
2022-09-13T16:12:24.390Z,21.19
2022-09-13T16:14:51.821Z,21.16
2022-09-13T16:17:27.049Z,21.09
2022-09-13T16:19:54.423Z,21.01
2022-09-13T16:22:22.298Z,20.94
2022-09-13T16:24:49.479Z,20.90
2022-09-13T16:27:18.579Z,20.85
2022-09-13T16:29:46.830Z,20.82
2022-09-13T16:32:13.819Z,20.83
2022-09-13T16:34:41.165Z,20.77
2022-09-13T16:37:08.336Z,20.70
2022-09-13T16:39:37.839Z,20.64
2022-09-13T16:42:07.311Z,20.64
2022-09-13T16:44:34.480Z,20.60
2022-09-13T16:47:01.811Z,20.53
2022-09-13T16:49:29.338Z,20.49
2022-09-13T16:51:59.517Z,20.44
2022-09-13T16:54:28.046Z,20.39
2022-09-13T16:56:55.268Z,20.35
2022-09-13T16:59:23.070Z,20.30
2022-09-13T17:01:52.910Z,20.30
2022-09-13T17:04:20.211Z,20.22
2022-09-13T17:06:49.445Z,20.17
2022-09-13T17:09:16.599Z,20.14
2022-09-13T17:11:44.955Z,20.08
2022-09-13T17:14:17.370Z,20.05
2022-09-13T17:16:53.303Z,20.01
2022-09-13T17:19:25.899Z,19.97
2022-09-13T17:21:57.517Z,19.94
2022-09-13T17:24:28.983Z,19.92
2022-09-13T17:26:59.457Z,19.91
2022-09-13T17:29:31.006Z,19.87
2022-09-13T17:32:00.843Z,19.83
2022-09-13T17:34:28.279Z,19.77
2022-09-13T17:36:55.299Z,19.74
2022-09-13T17:39:24.915Z,19.73
2022-09-13T17:41:54.116Z,19.69
2022-09-13T17:44:22.144Z,19.65
2022-09-13T17:46:52.449Z,19.59
2022-09-13T17:49:19.984Z,19.54
2022-09-13T17:51:47.144Z,19.51
2022-09-13T17:54:14.297Z,19.49
2022-09-13T17:56:44.007Z,19.45
2022-09-13T17:59:20.071Z,19.43
2022-09-13T18:01:54.732Z,19.44
2022-09-13T18:04:23.550Z,19.44
2022-09-13T18:06:52.379Z,19.43
2022-09-13T18:09:20.419Z,19.42
2022-09-13T18:11:48.181Z,19.43
2022-09-13T18:14:18.289Z,19.40
2022-09-13T18:16:45.917Z,19.39
2022-09-13T18:19:13.687Z,19.43
2022-09-13T18:21:41.507Z,19.46
2022-09-13T18:24:09.124Z,19.46
2022-09-13T18:26:39.102Z,19.43
2022-09-13T18:29:14.045Z,19.41
2022-09-13T18:31:42.206Z,19.35
2022-09-13T18:34:14.366Z,19.29
2022-09-13T18:36:42.478Z,19.26
2022-09-13T18:39:21.564Z,19.20
2022-09-13T18:41:49.512Z,19.17
2022-09-13T18:44:18.303Z,19.13
2022-09-13T18:46:47.345Z,19.10
2022-09-13T18:49:15.540Z,19.06
2022-09-13T18:51:44.600Z,19.01
2022-09-13T18:54:15.699Z,18.92
2022-09-13T18:56:47.659Z,18.78
2022-09-13T18:59:15.447Z,18.64
2022-09-13T19:01:45.911Z,18.54
2022-09-13T19:04:16.379Z,18.38
2022-09-13T19:06:46.469Z,18.27
2022-09-13T19:09:14.953Z,18.13
2022-09-13T19:11:48.677Z,17.98
2022-09-13T19:14:24.754Z,17.87
2022-09-13T19:16:54.918Z,17.77
2022-09-13T19:19:23.059Z,17.66
2022-09-13T19:21:50.599Z,17.53
2022-09-13T19:24:19.984Z,17.43
2022-09-13T19:26:51.253Z,17.34
2022-09-13T19:29:21.953Z,17.26
2022-09-13T19:31:53.436Z,17.18
2022-09-13T19:34:22.681Z,17.11
2022-09-13T19:36:52.986Z,17.02
2022-09-13T19:39:20.255Z,16.94
2022-09-13T19:41:47.817Z,16.85
2022-09-13T19:44:18.034Z,16.75
2022-09-13T19:46:46.421Z,16.68
2022-09-13T19:49:16.687Z,16.57
2022-09-13T19:51:49.992Z,16.49
2022-09-13T19:54:20.895Z,16.41
2022-09-13T19:56:48.922Z,16.35
2022-09-13T19:59:20.015Z,16.31
2022-09-13T20:01:48.531Z,16.27
2022-09-13T20:04:21.432Z,16.22
2022-09-13T20:06:51.163Z,16.17
2022-09-13T20:09:19.896Z,16.13
2022-09-13T20:11:49.179Z,16.11
2022-09-13T20:14:19.781Z,16.06
2022-09-13T20:16:48.366Z,16.02
2022-09-13T20:19:40.127Z,16.00
2022-09-13T20:22:09.854Z,16.01
2022-09-13T20:24:37.846Z,16.02
2022-09-13T20:27:05.553Z,16.08
2022-09-13T20:29:36.573Z,16.13
2022-09-13T20:32:09.794Z,16.11
2022-09-13T20:34:39.604Z,16.08
2022-09-13T20:37:09.168Z,16.09
2022-09-13T20:39:36.540Z,16.01
2022-09-13T20:42:04.225Z,16.02
2022-09-13T20:44:36.067Z,15.96
2022-09-13T20:47:04.194Z,15.91
2022-09-13T20:49:31.751Z,15.94
2022-09-13T20:51:59.581Z,16.06
2022-09-13T20:54:26.858Z,16.05
2022-09-13T20:56:53.955Z,16.06
2022-09-13T20:59:23.234Z,16.09
2022-09-13T21:01:50.187Z,16.14
2022-09-13T21:04:17.659Z,16.10
2022-09-13T21:07:05.571Z,16.05
2022-09-13T21:09:32.744Z,16.12
2022-09-13T21:12:01.308Z,16.11
2022-09-13T21:14:32.293Z,16.08
2022-09-13T21:16:59.639Z,16.09
2022-09-13T21:19:29.194Z,16.08
2022-09-13T21:21:56.112Z,16.06
2022-09-13T21:24:23.230Z,15.97
2022-09-13T21:26:50.150Z,15.93
2022-09-13T21:29:22.620Z,15.88
2022-09-13T21:31:52.948Z,15.76
2022-09-13T21:34:22.352Z,15.66
2022-09-13T21:36:49.357Z,15.62
2022-09-13T21:39:18.669Z,15.51
2022-09-13T21:41:47.589Z,15.38
2022-09-13T21:44:14.772Z,15.38
2022-09-13T21:46:42.669Z,15.34
2022-09-13T21:49:12.490Z,15.31
2022-09-13T21:51:45.351Z,15.26
2022-09-13T21:54:19.387Z,15.17
2022-09-13T21:56:52.290Z,15.11
2022-09-13T21:59:20.916Z,15.03
2022-09-13T22:01:54.112Z,14.98
2022-09-13T22:04:24.717Z,14.92
2022-09-13T22:06:55.485Z,14.91
2022-09-13T22:09:27.236Z,14.95
2022-09-13T22:11:55.472Z,14.95
2022-09-13T22:14:22.562Z,14.86
2022-09-13T22:16:52.701Z,14.78
2022-09-13T22:19:26.583Z,14.79
2022-09-13T22:21:59.481Z,14.76
2022-09-13T22:24:28.914Z,14.77
2022-09-13T22:26:58.181Z,14.75
2022-09-13T22:29:28.016Z,14.71
2022-09-13T22:31:55.246Z,14.72
2022-09-13T22:34:24.540Z,14.67
2022-09-13T22:36:54.465Z,14.63
2022-09-13T22:39:21.432Z,14.61
2022-09-13T22:41:48.563Z,14.64
2022-09-13T22:44:20.345Z,14.64
2022-09-13T22:46:47.502Z,14.57
2022-09-13T22:49:17.936Z,14.62
2022-09-13T22:51:46.143Z,14.62
2022-09-13T22:54:14.673Z,14.61
2022-09-13T22:56:42.091Z,14.52
2022-09-13T22:59:14.721Z,14.50
2022-09-13T23:01:42.139Z,14.44
2022-09-13T23:04:14.258Z,14.48
2022-09-13T23:06:44.011Z,14.46
2022-09-13T23:09:14.565Z,14.45
2022-09-13T23:11:42.130Z,14.54
2022-09-13T23:14:12.116Z,14.47
2022-09-13T23:16:43.051Z,14.45
2022-09-13T23:19:17.386Z,14.43
2022-09-13T23:21:44.828Z,14.49
2022-09-13T23:24:14.757Z,14.54
2022-09-13T23:26:42.034Z,14.62
2022-09-13T23:29:15.244Z,14.69
2022-09-13T23:31:43.379Z,14.74
2022-09-13T23:34:12.695Z,14.82
2022-09-13T23:36:42.405Z,14.81
2022-09-13T23:39:14.059Z,14.83
2022-09-13T23:41:40.986Z,14.87
2022-09-13T23:44:07.886Z,14.82
2022-09-13T23:46:35.464Z,14.74
2022-09-13T23:49:02.783Z,14.74
2022-09-13T23:51:30.254Z,14.68
2022-09-13T23:53:58.465Z,14.56
2022-09-13T23:56:27.021Z,14.53
2022-09-13T23:58:57.242Z,14.48
